This is the latest recevied weather packets stored in our database for station/object KG2V. If no packets are shown the sender has not sent any weather packets the latest 10 day(s).
| Time | Temp. | Humidity | Pressure | Rain* | Wind** | Luminosity | Snow |
|---|---|---|---|---|---|---|---|
| 1778250668 | 7.22° C | 82% | 1008.5 hPa | 0 mm | - | 219 W/m² | - |
| 1778250360 | 7.22° C | 85% | 1008.7 hPa | 0 mm | - | 259 W/m² | - |
| 1778250056 | 6.67° C | 86% | 1008.5 hPa | 0 mm | - | 267 W/m² | - |
| 1778249752 | 6.67° C | 86% | 1008.5 hPa | 0 mm | - | 217 W/m² | - |
| 1778249445 | 6.11° C | 86% | 1008.5 hPa | 0 mm | - | 269 W/m² | - |
| 1778249142 | 6.11° C | 88% | 1008.5 hPa | 0 mm | - | 172 W/m² | - |
| 1778248838 | 5.56° C | 86% | 1008.4 hPa | 0 mm | - | 117 W/m² | - |
| 1778248533 | 6.11° C | 88% | 1008.7 hPa | 0 mm | - | 115 W/m² | - |
| 1778248230 | 6.11° C | 86% | 1008.8 hPa | 0 mm | - | 213 W/m² | - |
| 1778247927 | 6.11° C | 88% | 1008.9 hPa | 0 mm | - | 318 W/m² | - |
| 1778247624 | 5.56° C | 89% | 1008.7 hPa | 0 mm | - | 200 W/m² | - |
| 1778247320 | 5.56° C | 89% | 1008.7 hPa | 0 mm | - | 195 W/m² | - |
| 1778247018 | 5.56° C | 90% | 1008.8 hPa | 0 mm | - | 133 W/m² | - |
| 1778246715 | 5.56° C | 90% | 1008.8 hPa | 0 mm | - | 164 W/m² | - |
| 1778246412 | 5.56° C | 91% | 1008.7 hPa | 0 mm | - | 144 W/m² | - |
| 1778246107 | 5.56° C | 91% | 1008.8 hPa | 0 mm | - | 114 W/m² | - |
| 1778245804 | 5° C | 92% | 1008.6 hPa | 0 mm | - | 149 W/m² | - |
| 1778245501 | 5° C | 92% | 1008.6 hPa | 0 mm | - | 120 W/m² | - |
| 1778245196 | 5.56° C | 92% | 1008.7 hPa | 0 mm | - | 110 W/m² | - |
| 1778244893 | 5° C | 93% | 1008.7 hPa | 0 mm | - | 126 W/m² | - |
| 1778244591 | 5° C | 94% | 1008.5 hPa | 0 mm | - | 127 W/m² | - |
| 1778244289 | 5° C | 94% | 1008.6 hPa | 1.78 mm | - | 110 W/m² | - |
| 1778243986 | 4.44° C | 95% | 1008.7 hPa | 1.78 mm | - | 130 W/m² | - |
| 1778243685 | 4.44° C | 97% | 1008.6 hPa | 0 mm | - | 80 W/m² | - |
| 1778243380 | 3.89° C | 97% | 1008.6 hPa | 0 mm | - | 63 W/m² | - |
* Rain latest hour (hover to see other rain measurements)
** Current wind speed in m/s (hover to see current wind gust speed)